Portada
METAR-TAF:

METAR-TAF

Aeroports :

Chandigar, Índia

latitud: 30-40-29N, longitud: 76-47-26E, altitud: 314 m

METAR: manca

Hora: 02:49 (21:19 UTC)

Pronòstic

L'informe es va fer fa 5 hores i 49 minuts, a les 15:30 UTC
Pronòstic vàlid del 24 a les 18 UTC al 25 a les 06 UTC
Vent 2 kt amb direcció variable
Visibilitat: 6000 m
Núvols disperses a una alçada de 9000 ft
Evolucionant progressivament
l' 25 a les 00 UTC al 25 a les 03 UTC
Vent 5 kt del Nord-Oest
Visibilitat: 5000 m
boirina
Evolucionant progressivament
l' 25 a les 04 UTC al 25 a les 06 UTC
Visibilitat: 6000 m

TAF: VICG 241530Z 2418/2506 VRB02KT 6000 SCT090 BECMG 2500/2503 32005KT 5000 BR NSC BECMG 2504/2506 6000

Observacions i pronòstics meteorològics de més de 4000 aeroports (METAR i TAF).

Les estacions disponibles són els punts grocs i vermells al mapa.

Posi el ratolí al punt desitjat per veure el nom de l'estació.

Feu clic per veure les observacions i els pronòstics meteorològics.

Per canviar el mapa: feu clic els botons verds amb una creu de color negre per apropar; al botó verd amb un guió per allunyar la imatge; o en les fletxes verdes per a mapes adjacents.


METAR-TAF: